sensor_id;sensor_type;location;lat;lon;timestamp;pressure;altitude;pressure_sealevel;temperature;humidity
42705;BME280;28342;42.594;23.414;2023-01-28T00:00:04;93770.09;;;0.26;91.07
42705;BME280;28342;42.594;23.414;2023-01-28T00:02:31;93789.41;;;0.51;90.98
42705;BME280;28342;42.594;23.414;2023-01-28T00:05:00;93738.56;;;0.18;90.23
42705;BME280;28342;42.594;23.414;2023-01-28T00:07:25;93786.56;;;0.37;90.38
42705;BME280;28342;42.594;23.414;2023-01-28T00:09:51;93806.09;;;0.40;90.28
42705;BME280;28342;42.594;23.414;2023-01-28T00:12:18;93784.19;;;0.25;90.37
42705;BME280;28342;42.594;23.414;2023-01-28T00:14:44;93778.44;;;0.28;90.14
42705;BME280;28342;42.594;23.414;2023-01-28T00:17:10;93808.22;;;0.53;90.26
42705;BME280;28342;42.594;23.414;2023-01-28T00:19:36;93777.94;;;0.32;89.87
42705;BME280;28342;42.594;23.414;2023-01-28T00:22:03;93790.19;;;0.41;89.32
42705;BME280;28342;42.594;23.414;2023-01-28T00:24:29;93790.47;;;0.50;89.30
42705;BME280;28342;42.594;23.414;2023-01-28T00:26:55;93757.06;;;0.21;89.26
42705;BME280;28342;42.594;23.414;2023-01-28T00:29:20;93791.50;;;0.54;89.40
42705;BME280;28342;42.594;23.414;2023-01-28T00:31:47;93799.31;;;0.59;88.67
42705;BME280;28342;42.594;23.414;2023-01-28T00:34:13;93788.38;;;0.42;88.86
42705;BME280;28342;42.594;23.414;2023-01-28T00:36:38;93799.59;;;0.42;89.01
42705;BME280;28342;42.594;23.414;2023-01-28T00:39:05;93763.84;;;0.17;88.74
42705;BME280;28342;42.594;23.414;2023-01-28T00:41:31;93799.84;;;0.46;88.73
42705;BME280;28342;42.594;23.414;2023-01-28T00:43:57;93790.97;;;0.26;88.82
42705;BME280;28342;42.594;23.414;2023-01-28T00:46:23;93766.97;;;0.14;88.83
42705;BME280;28342;42.594;23.414;2023-01-28T00:48:52;93799.06;;;0.35;89.44
42705;BME280;28342;42.594;23.414;2023-01-28T00:51:19;93799.84;;;0.25;88.45
42705;BME280;28342;42.594;23.414;2023-01-28T00:53:46;93776.38;;;0.20;88.55
42705;BME280;28342;42.594;23.414;2023-01-28T00:56:13;93806.09;;;0.40;88.40
42705;BME280;28342;42.594;23.414;2023-01-28T00:58:39;93772.19;;;0.14;88.61
42705;BME280;28342;42.594;23.414;2023-01-28T01:01:30;93818.38;;;0.39;89.70
42705;BME280;28342;42.594;23.414;2023-01-28T01:03:56;93795.66;;;0.14;88.68
42705;BME280;28342;42.594;23.414;2023-01-28T01:06:38;93779.19;;;-0.02;89.44
42705;BME280;28342;42.594;23.414;2023-01-28T01:09:06;93799.31;;;0.03;89.77
42705;BME280;28342;42.594;23.414;2023-01-28T01:11:42;93825.91;;;0.20;89.22
42705;BME280;28342;42.594;23.414;2023-01-28T01:14:10;93782.34;;;-0.05;89.54
42705;BME280;28342;42.594;23.414;2023-01-28T01:16:35;93793.56;;;0.06;88.60
42705;BME280;28342;42.594;23.414;2023-01-28T01:19:04;93775.78;;;-0.17;89.85
42705;BME280;28342;42.594;23.414;2023-01-28T01:21:30;93814.94;;;0.08;89.16
42705;BME280;28342;42.594;23.414;2023-01-28T01:23:56;93806.59;;;0.06;90.21
42705;BME280;28342;42.594;23.414;2023-01-28T01:26:23;93774.78;;;-0.01;89.47
42705;BME280;28342;42.594;23.414;2023-01-28T01:28:53;93814.72;;;0.35;88.28
42705;BME280;28342;42.594;23.414;2023-01-28T01:31:24;93766.44;;;0.07;87.80
42705;BME280;28342;42.594;23.414;2023-01-28T01:33:53;93801.94;;;0.34;88.47
42705;BME280;28342;42.594;23.414;2023-01-28T01:36:19;93804.00;;;0.26;87.71
42705;BME280;28342;42.594;23.414;2023-01-28T01:38:47;93792.28;;;0.19;88.50
42705;BME280;28342;42.594;23.414;2023-01-28T01:41:26;93776.91;;;0.22;88.56
42705;BME280;28342;42.594;23.414;2023-01-28T01:44:46;93828.53;;;0.30;88.70
42705;BME280;28342;42.594;23.414;2023-01-28T01:46:53;93780.53;;;0.11;88.51
42705;BME280;28342;42.594;23.414;2023-01-28T01:49:25;93806.63;;;0.37;88.34
42705;BME280;28342;42.594;23.414;2023-01-28T01:52:11;93815.50;;;0.36;87.96
42705;BME280;28342;42.594;23.414;2023-01-28T01:54:38;93795.41;;;0.26;87.97
42705;BME280;28342;42.594;23.414;2023-01-28T01:57:09;93811.31;;;0.19;89.01
42705;BME280;28342;42.594;23.414;2023-01-28T01:59:40;93797.22;;;0.10;88.86
42705;BME280;28342;42.594;23.414;2023-01-28T02:02:08;93799.81;;;0.05;89.70
42705;BME280;28342;42.594;23.414;2023-01-28T02:04:38;93814.44;;;0.26;88.82
42705;BME280;28342;42.594;23.414;2023-01-28T02:07:04;93814.97;;;0.18;88.85
42705;BME280;28342;42.594;23.414;2023-01-28T02:09:34;93823.84;;;0.17;88.94
42705;BME280;28342;42.594;23.414;2023-01-28T02:12:10;93858.31;;;0.50;88.50
42705;BME280;28342;42.594;23.414;2023-01-28T02:14:53;93825.41;;;0.34;88.15
42705;BME280;28342;42.594;23.414;2023-01-28T02:17:22;93802.94;;;-0.03;89.06
42705;BME280;28342;42.594;23.414;2023-01-28T02:20:05;93819.69;;;0.32;89.05
42705;BME280;28342;42.594;23.414;2023-01-28T02:25:44;93856.47;;;0.50;88.90
42705;BME280;28342;42.594;23.414;2023-01-28T02:28:21;93852.31;;;0.65;87.80
42705;BME280;28342;42.594;23.414;2023-01-28T02:31:00;93854.13;;;0.54;88.31
42705;BME280;28342;42.594;23.414;2023-01-28T02:33:36;93794.59;;;-0.05;88.73
42705;BME280;28342;42.594;23.414;2023-01-28T02:36:31;93828.53;;;0.20;89.41
42705;BME280;28342;42.594;23.414;2023-01-28T02:39:07;93855.16;;;0.38;89.19
42705;BME280;28342;42.594;23.414;2023-01-28T02:41:43;93843.66;;;0.28;88.81
42705;BME280;28342;42.594;23.414;2023-01-28T02:44:11;93865.03;;;0.30;88.51
42705;BME280;28342;42.594;23.414;2023-01-28T02:46:37;93854.09;;;0.18;88.91
42705;BME280;28342;42.594;23.414;2023-01-28T02:49:27;93860.06;;;0.14;89.72
42705;BME280;28342;42.594;23.414;2023-01-28T02:57:57;93805.00;;;-0.05;89.39
42705;BME280;28342;42.594;23.414;2023-01-28T03:03:58;93855.63;;;0.14;89.70
42705;BME280;28342;42.594;23.414;2023-01-28T03:06:31;93863.50;;;0.35;88.97
42705;BME280;28342;42.594;23.414;2023-01-28T03:09:05;93811.25;;;-0.01;88.77
42705;BME280;28342;42.594;23.414;2023-01-28T03:12:02;93837.91;;;0.06;89.35
42705;BME280;28342;42.594;23.414;2023-01-28T03:14:59;93850.94;;;0.11;89.85
42705;BME280;28342;42.594;23.414;2023-01-28T03:17:50;93867.66;;;0.25;89.32
42705;BME280;28342;42.594;23.414;2023-01-28T03:24:04;93851.00;;;0.32;89.05
42705;BME280;28342;42.594;23.414;2023-01-28T03:27:04;93869.25;;;0.37;88.71
42705;BME280;28342;42.594;23.414;2023-01-28T03:33:15;93862.94;;;0.12;88.57
42705;BME280;28342;42.594;23.414;2023-01-28T03:36:01;93851.44;;;0.08;89.16
42705;BME280;28342;42.594;23.414;2023-01-28T03:38:45;93819.59;;;-0.04;88.87
42705;BME280;28342;42.594;23.414;2023-01-28T03:41:20;93841.50;;;-0.05;88.29
42705;BME280;28342;42.594;23.414;2023-01-28T03:43:48;93850.94;;;0.06;89.36
42705;BME280;28342;42.594;23.414;2023-01-28T03:49:47;93835.50;;;-0.06;88.72
42705;BME280;28342;42.594;23.414;2023-01-28T03:52:26;93820.66;;;-0.10;89.36
42705;BME280;28342;42.594;23.414;2023-01-28T03:54:52;93807.56;;;-0.20;89.31
42705;BME280;28342;42.594;23.414;2023-01-28T03:57:23;93844.88;;;-0.10;89.73
42705;BME280;28342;42.594;23.414;2023-01-28T03:59:49;93878.59;;;0.27;89.40
42705;BME280;28342;42.594;23.414;2023-01-28T04:02:19;93841.25;;;-0.09;89.16
42705;BME280;28342;42.594;23.414;2023-01-28T04:04:45;93855.13;;;0.17;88.50
42705;BME280;28342;42.594;23.414;2023-01-28T04:07:12;93867.41;;;0.42;88.37
42705;BME280;28342;42.594;23.414;2023-01-28T04:09:41;93877.84;;;0.42;88.22
42705;BME280;28342;42.594;23.414;2023-01-28T04:12:08;93849.41;;;0.25;87.34
42705;BME280;28342;42.594;23.414;2023-01-28T04:14:34;93866.38;;;0.38;87.20
42705;BME280;28342;42.594;23.414;2023-01-28T04:17:01;93838.41;;;0.13;86.81
42705;BME280;28342;42.594;23.414;2023-01-28T04:19:30;93877.03;;;0.21;87.34
42705;BME280;28342;42.594;23.414;2023-01-28T04:21:55;93874.94;;;0.18;87.86
42705;BME280;28342;42.594;23.414;2023-01-28T04:24:25;93874.44;;;0.21;88.06
42705;BME280;28342;42.594;23.414;2023-01-28T04:26:51;93845.72;;;0.01;86.80
42705;BME280;28342;42.594;23.414;2023-01-28T04:29:16;93876.00;;;0.27;87.33
42705;BME280;28342;42.594;23.414;2023-01-28T04:31:42;93866.00;;;-0.06;86.70
42705;BME280;28342;42.594;23.414;2023-01-28T04:34:10;93852.16;;;-0.17;87.32
42705;BME280;28342;42.594;23.414;2023-01-28T04:36:36;93852.97;;;-0.11;87.35
42705;BME280;28342;42.594;23.414;2023-01-28T04:39:02;93889.25;;;0.06;86.66
42705;BME280;28342;42.594;23.414;2023-01-28T04:41:27;93855.78;;;-0.23;86.76
42705;BME280;28342;42.594;23.414;2023-01-28T04:43:53;93853.91;;;-0.33;86.90
42705;BME280;28342;42.594;23.414;2023-01-28T04:46:19;93866.22;;;-0.23;87.34
42705;BME280;28342;42.594;23.414;2023-01-28T04:48:47;93873.78;;;-0.21;87.33
42705;BME280;28342;42.594;23.414;2023-01-28T04:51:12;93895.19;;;-0.14;87.37
42705;BME280;28342;42.594;23.414;2023-01-28T04:53:38;93909.78;;;-0.13;87.51
42705;BME280;28342;42.594;23.414;2023-01-28T04:56:04;93901.19;;;-0.14;88.46
42705;BME280;28342;42.594;23.414;2023-01-28T04:58:30;93877.94;;;-0.31;88.33
42705;BME280;28342;42.594;23.414;2023-01-28T05:00:58;93921.78;;;-0.07;87.91
42705;BME280;28342;42.594;23.414;2023-01-28T05:03:24;93906.63;;;-0.20;87.99
42705;BME280;28342;42.594;23.414;2023-01-28T05:05:50;93910.84;;;-0.14;88.63
42705;BME280;28342;42.594;23.414;2023-01-28T05:08:15;93916.00;;;-0.19;88.31
42705;BME280;28342;42.594;23.414;2023-01-28T05:10:41;93913.91;;;-0.22;88.03
42705;BME280;28342;42.594;23.414;2023-01-28T05:13:07;93919.13;;;-0.22;88.84
42705;BME280;28342;42.594;23.414;2023-01-28T05:15:33;93943.69;;;-0.13;88.50
42705;BME280;28342;42.594;23.414;2023-01-28T05:18:01;93888.66;;;-0.69;89.62
42705;BME280;28342;42.594;23.414;2023-01-28T05:20:26;93914.25;;;-0.61;89.97
42705;BME280;28342;42.594;23.414;2023-01-28T05:26:17;93933.72;;;-0.26;89.76
42705;BME280;28342;42.594;23.414;2023-01-28T05:28:43;93940.75;;;-0.22;89.12
42705;BME280;28342;42.594;23.414;2023-01-28T05:31:09;93910.38;;;-0.48;88.54
42705;BME280;28342;42.594;23.414;2023-01-28T05:33:35;93931.06;;;-0.32;89.22
42705;BME280;28342;42.594;23.414;2023-01-28T05:36:01;93932.66;;;-0.25;88.95
42705;BME280;28342;42.594;23.414;2023-01-28T05:38:26;93925.06;;;-0.32;89.59
42705;BME280;28342;42.594;23.414;2023-01-28T05:40:53;93957.19;;;-0.21;89.19
42705;BME280;28342;42.594;23.414;2023-01-28T05:43:19;93940.03;;;-0.12;88.97
42705;BME280;28342;42.594;23.414;2023-01-28T05:45:46;93936.84;;;-0.19;88.01
42705;BME280;28342;42.594;23.414;2023-01-28T05:48:12;93907.13;;;-0.23;87.95
42705;BME280;28342;42.594;23.414;2023-01-28T05:50:37;93902.94;;;-0.29;87.02
42705;BME280;28342;42.594;23.414;2023-01-28T05:53:06;93910.25;;;-0.21;87.48
42705;BME280;28342;42.594;23.414;2023-01-28T05:55:32;93951.06;;;0.05;87.12
42705;BME280;28342;42.594;23.414;2023-01-28T05:57:57;93912.81;;;-0.32;87.08
42705;BME280;28342;42.594;23.414;2023-01-28T06:00:23;93916.00;;;-0.24;86.67
42705;BME280;28342;42.594;23.414;2023-01-28T06:02:52;93957.31;;;0.14;86.47
42705;BME280;28342;42.594;23.414;2023-01-28T06:05:18;93963.03;;;0.06;86.30
42705;BME280;28342;42.594;23.414;2023-01-28T06:07:48;93926.63;;;-0.31;87.33
42705;BME280;28342;42.594;23.414;2023-01-28T06:10:14;93965.63;;;0.01;87.45
42705;BME280;28342;42.594;23.414;2023-01-28T06:12:42;93966.69;;;0.05;87.32
42705;BME280;28342;42.594;23.414;2023-01-28T06:15:08;93947.53;;;-0.21;86.71
42705;BME280;28342;42.594;23.414;2023-01-28T06:17:34;93955.59;;;-0.22;87.36
42705;BME280;28342;42.594;23.414;2023-01-28T06:20:01;93967.16;;;-0.08;87.02
42705;BME280;28342;42.594;23.414;2023-01-28T06:22:27;93977.34;;;-0.02;86.71
42705;BME280;28342;42.594;23.414;2023-01-28T06:24:54;93986.00;;;0.04;86.69
42705;BME280;28342;42.594;23.414;2023-01-28T06:27:20;93991.22;;;0.09;86.63
42705;BME280;28342;42.594;23.414;2023-01-28T06:29:46;93977.06;;;-0.05;87.23
42705;BME280;28342;42.594;23.414;2023-01-28T06:32:12;93996.97;;;0.11;87.09
42705;BME280;28342;42.594;23.414;2023-01-28T06:34:38;93967.16;;;-0.03;86.51
42705;BME280;28342;42.594;23.414;2023-01-28T06:37:03;93973.41;;;-0.04;86.11
42705;BME280;28342;42.594;23.414;2023-01-28T06:39:29;94001.13;;;0.07;86.54
42705;BME280;28342;42.594;23.414;2023-01-28T06:41:59;94006.84;;;0.04;86.73
42705;BME280;28342;42.594;23.414;2023-01-28T06:44:25;93969.91;;;-0.30;86.84
42705;BME280;28342;42.594;23.414;2023-01-28T06:47:07;93982.28;;;-0.05;86.59
42705;BME280;28342;42.594;23.414;2023-01-28T06:49:36;94008.44;;;0.15;86.53
42705;BME280;28342;42.594;23.414;2023-01-28T06:52:03;93992.66;;;-0.15;87.20
42705;BME280;28342;42.594;23.414;2023-01-28T06:54:30;94016.22;;;0.05;86.80
42705;BME280;28342;42.594;23.414;2023-01-28T06:56:56;93970.28;;;-0.06;86.86
42705;BME280;28342;42.594;23.414;2023-01-28T06:59:21;93983.50;;;-0.18;88.26
42705;BME280;28342;42.594;23.414;2023-01-28T07:01:47;94024.56;;;0.02;86.86
42705;BME280;28342;42.594;23.414;2023-01-28T07:04:13;93994.50;;;-0.11;86.29
42705;BME280;28342;42.594;23.414;2023-01-28T07:06:38;94036.66;;;0.23;85.81
42705;BME280;28342;42.594;23.414;2023-01-28T07:09:04;94039.78;;;0.25;85.49
42705;BME280;28342;42.594;23.414;2023-01-28T07:11:31;94015.72;;;0.03;86.16
42705;BME280;28342;42.594;23.414;2023-01-28T07:13:57;94014.13;;;0.02;86.60
42705;BME280;28342;42.594;23.414;2023-01-28T07:16:24;94037.38;;;0.14;86.42
42705;BME280;28342;42.594;23.414;2023-01-28T07:18:49;94044.47;;;0.23;86.86
42705;BME280;28342;42.594;23.414;2023-01-28T07:21:15;94051.78;;;0.21;86.19
42705;BME280;28342;42.594;23.414;2023-01-28T07:23:48;94062.28;;;0.32;85.93
42705;BME280;28342;42.594;23.414;2023-01-28T07:26:14;94066.38;;;0.17;86.57
42705;BME280;28342;42.594;23.414;2023-01-28T07:28:40;94062.75;;;0.23;86.73
42705;BME280;28342;42.594;23.414;2023-01-28T07:31:05;94075.81;;;0.28;86.38
42705;BME280;28342;42.594;23.414;2023-01-28T07:33:32;94077.38;;;0.29;85.89
42705;BME280;28342;42.594;23.414;2023-01-28T07:35:57;94076.88;;;0.33;86.06
42705;BME280;28342;42.594;23.414;2023-01-28T07:38:23;94079.28;;;0.44;85.83
42705;BME280;28342;42.594;23.414;2023-01-28T07:40:48;94072.72;;;0.37;85.81
42705;BME280;28342;42.594;23.414;2023-01-28T07:43:14;94070.66;;;0.39;85.86
42705;BME280;28342;42.594;23.414;2023-01-28T07:45:40;94088.44;;;0.47;85.65
42705;BME280;28342;42.594;23.414;2023-01-28T07:48:11;94077.94;;;0.32;86.15
42705;BME280;28342;42.594;23.414;2023-01-28T07:50:37;94055.44;;;0.25;85.18
42705;BME280;28342;42.594;23.414;2023-01-28T07:53:04;94081.66;;;0.51;84.91
42705;BME280;28342;42.594;23.414;2023-01-28T07:55:30;94077.94;;;0.32;84.99
42705;BME280;28342;42.594;23.414;2023-01-28T07:57:59;94055.94;;;0.17;84.96
42705;BME280;28342;42.594;23.414;2023-01-28T08:00:29;94054.16;;;0.28;84.77
42705;BME280;28342;42.594;23.414;2023-01-28T08:03:15;94056.75;;;0.23;84.92
42705;BME280;28342;42.594;23.414;2023-01-28T08:05:51;94096.78;;;0.49;84.82
42705;BME280;28342;42.594;23.414;2023-01-28T08:08:21;94097.84;;;0.53;84.61
42705;BME280;28342;42.594;23.414;2023-01-28T08:10:47;94073.75;;;0.36;84.85
42705;BME280;28342;42.594;23.414;2023-01-28T08:16:35;94071.69;;;0.43;83.88
42705;BME280;28342;42.594;23.414;2023-01-28T08:19:02;94081.63;;;0.46;84.79
42705;BME280;28342;42.594;23.414;2023-01-28T08:21:29;94076.38;;;0.36;84.99
42705;BME280;28342;42.594;23.414;2023-01-28T08:24:06;94108.00;;;0.49;84.89
42705;BME280;28342;42.594;23.414;2023-01-28T08:29:38;94111.47;;;0.65;85.05
42705;BME280;28342;42.594;23.414;2023-01-28T08:32:04;94078.19;;;0.35;84.58
42705;BME280;28342;42.594;23.414;2023-01-28T08:34:31;94129.75;;;0.70;84.50
42705;BME280;28342;42.594;23.414;2023-01-28T08:36:56;94130.81;;;0.74;83.91
42705;BME280;28342;42.594;23.414;2023-01-28T08:39:23;94142.38;;;0.88;85.05
42705;BME280;28342;42.594;23.414;2023-01-28T08:41:49;94089.22;;;0.47;83.96
42705;BME280;28342;42.594;23.414;2023-01-28T08:44:15;94086.38;;;0.59;83.99
42705;BME280;28342;42.594;23.414;2023-01-28T08:46:40;94118.59;;;0.85;83.97
42705;BME280;28342;42.594;23.414;2023-01-28T08:49:05;94119.38;;;0.85;82.83
42705;BME280;28342;42.594;23.414;2023-01-28T08:51:31;94120.69;;;0.83;84.05
42705;BME280;28342;42.594;23.414;2023-01-28T08:53:58;94128.25;;;0.79;84.33
42705;BME280;28342;42.594;23.414;2023-01-28T08:56:23;94124.59;;;0.80;84.01
42705;BME280;28342;42.594;23.414;2023-01-28T08:58:49;94124.03;;;0.68;83.84
42705;BME280;28342;42.594;23.414;2023-01-28T09:01:14;94116.69;;;0.65;83.82
42705;BME280;28342;42.594;23.414;2023-01-28T09:03:39;94079.25;;;0.34;83.82
42705;BME280;28342;42.594;23.414;2023-01-28T09:06:05;94097.66;;;0.65;83.86
42705;BME280;28342;42.594;23.414;2023-01-28T09:08:31;94122.50;;;0.77;83.57
42705;BME280;28342;42.594;23.414;2023-01-28T09:10:57;94140.72;;;0.67;84.30
42705;BME280;28342;42.594;23.414;2023-01-28T09:13:24;94120.38;;;0.69;83.39
42705;BME280;28342;42.594;23.414;2023-01-28T09:15:50;94133.00;;;0.93;83.25
42705;BME280;28342;42.594;23.414;2023-01-28T09:18:22;94124.34;;;0.82;83.72
42705;BME280;28342;42.594;23.414;2023-01-28T09:20:47;94124.91;;;0.94;84.28
42705;BME280;28342;42.594;23.414;2023-01-28T09:23:14;94121.53;;;0.99;83.37
42705;BME280;28342;42.594;23.414;2023-01-28T09:25:40;94141.94;;;1.12;83.77
42705;BME280;28342;42.594;23.414;2023-01-28T09:28:08;94124.59;;;0.80;83.04
42705;BME280;28342;42.594;23.414;2023-01-28T09:30:35;94115.69;;;0.71;85.70
42705;BME280;28342;42.594;23.414;2023-01-28T09:33:03;94121.53;;;0.94;84.46
42705;BME280;28342;42.594;23.414;2023-01-28T09:35:32;94083.34;;;0.77;83.88
42705;BME280;28342;42.594;23.414;2023-01-28T09:37:58;94125.22;;;1.18;83.47
42705;BME280;28342;42.594;23.414;2023-01-28T09:40:40;94129.44;;;1.24;83.78
42705;BME280;28342;42.594;23.414;2023-01-28T09:46:04;94150.66;;;1.43;83.20
42705;BME280;28342;42.594;23.414;2023-01-28T09:48:44;94104.34;;;1.08;82.58
42705;BME280;28342;42.594;23.414;2023-01-28T09:51:39;94130.22;;;1.25;83.22
42705;BME280;28342;42.594;23.414;2023-01-28T09:54:19;94121.06;;;1.22;82.94
42705;BME280;28342;42.594;23.414;2023-01-28T09:56:52;94126.84;;;1.29;83.36
42705;BME280;28342;42.594;23.414;2023-01-28T09:59:22;94143.06;;;1.46;82.60
42705;BME280;28342;42.594;23.414;2023-01-28T10:02:02;94157.66;;;1.32;82.25
42705;BME280;28342;42.594;23.414;2023-01-28T10:08:01;94153.75;;;1.30;82.51
42705;BME280;28342;42.594;23.414;2023-01-28T10:13:19;94118.72;;;1.20;83.17
42705;BME280;28342;42.594;23.414;2023-01-28T10:16:23;94112.22;;;1.23;83.53
42705;BME280;28342;42.594;23.414;2023-01-28T10:19:04;94124.22;;;1.29;83.72
42705;BME280;28342;42.594;23.414;2023-01-28T10:21:38;94113.75;;;1.14;83.77
42705;BME280;28342;42.594;23.414;2023-01-28T10:26:51;94138.81;;;1.20;84.16
42705;BME280;28342;42.594;23.414;2023-01-28T10:29:21;94133.59;;;1.10;84.38
42705;BME280;28342;42.594;23.414;2023-01-28T10:31:53;94113.22;;;1.17;84.39
42705;BME280;28342;42.594;23.414;2023-01-28T10:34:20;94088.88;;;0.96;84.00
42705;BME280;28342;42.594;23.414;2023-01-28T10:36:47;94110.59;;;1.12;83.89
42705;BME280;28342;42.594;23.414;2023-01-28T10:39:14;94138.84;;;1.30;83.04
42705;BME280;28342;42.594;23.414;2023-01-28T10:41:41;94092.22;;;0.86;83.88
42705;BME280;28342;42.594;23.414;2023-01-28T10:46:50;94125.13;;;0.87;84.25
42705;BME280;28342;42.594;23.414;2023-01-28T10:49:28;94117.09;;;0.94;84.08
42705;BME280;28342;42.594;23.414;2023-01-28T10:51:55;94133.53;;;1.00;84.39
42705;BME280;28342;42.594;23.414;2023-01-28T10:56:54;94119.97;;;0.98;84.97
42705;BME280;28342;42.594;23.414;2023-01-28T11:02:44;94089.03;;;0.69;85.30
42705;BME280;28342;42.594;23.414;2023-01-28T11:05:23;94119.13;;;0.82;84.31
42705;BME280;28342;42.594;23.414;2023-01-28T11:08:16;94147.97;;;1.17;83.97
42705;BME280;28342;42.594;23.414;2023-01-28T11:10:44;94125.22;;;1.08;84.74
42705;BME280;28342;42.594;23.414;2023-01-28T11:13:16;94140.44;;;1.31;84.32
42705;BME280;28342;42.594;23.414;2023-01-28T11:15:54;94118.44;;;1.12;85.24
42705;BME280;28342;42.594;23.414;2023-01-28T11:18:26;94122.13;;;1.36;84.23
42705;BME280;28342;42.594;23.414;2023-01-28T11:20:59;94110.34;;;1.13;82.97
42705;BME280;28342;42.594;23.414;2023-01-28T11:26:51;94114.53;;;1.14;84.75
42705;BME280;28342;42.594;23.414;2023-01-28T11:29:38;94145.66;;;1.31;82.40
42705;BME280;28342;42.594;23.414;2023-01-28T11:32:04;94089.41;;;1.03;83.65
42705;BME280;28342;42.594;23.414;2023-01-28T11:34:33;94106.44;;;1.16;82.67
42705;BME280;28342;42.594;23.414;2023-01-28T11:37:10;94113.78;;;1.34;83.45
42705;BME280;28342;42.594;23.414;2023-01-28T11:39:37;94076.59;;;0.97;83.07
42705;BME280;28342;42.594;23.414;2023-01-28T11:42:17;94110.59;;;1.22;82.10
42705;BME280;28342;42.594;23.414;2023-01-28T11:44:43;94102.75;;;1.12;82.35
42705;BME280;28342;42.594;23.414;2023-01-28T11:52:54;94142.31;;;1.76;83.69
42705;BME280;28342;42.594;23.414;2023-01-28T11:55:36;94133.97;;;1.85;81.85
42705;BME280;28342;42.594;23.414;2023-01-28T12:01:01;94133.72;;;1.86;81.20
42705;BME280;28342;42.594;23.414;2023-01-28T12:15:01;94146.78;;;1.86;80.57
42705;BME280;28342;42.594;23.414;2023-01-28T12:26:15;94127.38;;;1.41;81.77
42705;BME280;28342;42.594;23.414;2023-01-28T12:37:19;94134.75;;;1.75;81.01
42705;BME280;28342;42.594;23.414;2023-01-28T12:42:51;94154.59;;;1.61;80.58
42705;BME280;28342;42.594;23.414;2023-01-28T12:47:53;94146.44;;;1.37;80.17
42705;BME280;28342;42.594;23.414;2023-01-28T12:50:24;94154.56;;;1.40;80.70
42705;BME280;28342;42.594;23.414;2023-01-28T12:55:55;94107.47;;;1.10;80.36
42705;BME280;28342;42.594;23.414;2023-01-28T12:58:35;94136.78;;;1.53;81.08
42705;BME280;28342;42.594;23.414;2023-01-28T13:01:06;94145.72;;;1.62;81.70
42705;BME280;28342;42.594;23.414;2023-01-28T13:03:41;94169.53;;;1.80;81.01
42705;BME280;28342;42.594;23.414;2023-01-28T13:08:46;94143.84;;;1.52;81.07
42705;BME280;28342;42.594;23.414;2023-01-28T13:11:16;94135.22;;;1.52;81.83
42705;BME280;28342;42.594;23.414;2023-01-28T13:13:44;94150.41;;;1.65;80.76
42705;BME280;28342;42.594;23.414;2023-01-28T13:16:11;94156.16;;;1.62;79.13
42705;BME280;28342;42.594;23.414;2023-01-28T13:26:48;94146.25;;;1.69;79.59
42705;BME280;28342;42.594;23.414;2023-01-28T13:31:53;94162.97;;;1.78;79.71
42705;BME280;28342;42.594;23.414;2023-01-28T13:34:32;94186.53;;;1.88;79.94
42705;BME280;28342;42.594;23.414;2023-01-28T13:37:31;94153.03;;;1.80;79.24
42705;BME280;28342;42.594;23.414;2023-01-28T13:42:29;94189.66;;;1.95;80.34
42705;BME280;28342;42.594;23.414;2023-01-28T13:47:43;94197.50;;;1.75;78.97
42705;BME280;28342;42.594;23.414;2023-01-28T13:50:20;94194.66;;;1.87;80.19
42705;BME280;28342;42.594;23.414;2023-01-28T13:55:38;94192.28;;;1.95;79.09
42705;BME280;28342;42.594;23.414;2023-01-28T14:06:11;94226.03;;;1.92;78.41
42705;BME280;28342;42.594;23.414;2023-01-28T14:19:33;94207.38;;;1.47;79.05
42705;BME280;28342;42.594;23.414;2023-01-28T14:22:08;94214.69;;;1.40;79.26
42705;BME280;28342;42.594;23.414;2023-01-28T14:24:36;94203.38;;;1.25;79.44
42705;BME280;28342;42.594;23.414;2023-01-28T14:27:05;94225.09;;;1.35;79.83
42705;BME280;28342;42.594;23.414;2023-01-28T14:32:26;94184.00;;;1.15;80.36
42705;BME280;28342;42.594;23.414;2023-01-28T14:34:58;94216.22;;;1.36;80.25
42705;BME280;28342;42.594;23.414;2023-01-28T14:37:29;94227.75;;;1.40;79.45
42705;BME280;28342;42.594;23.414;2023-01-28T14:42:24;94209.88;;;1.22;80.71
42705;BME280;28342;42.594;23.414;2023-01-28T14:45:21;94238.66;;;1.32;80.52
42705;BME280;28342;42.594;23.414;2023-01-28T14:59:17;94213.25;;;1.12;80.23
42705;BME280;28342;42.594;23.414;2023-01-28T15:01:46;94242.28;;;1.21;79.96
42705;BME280;28342;42.594;23.414;2023-01-28T15:06:47;94256.44;;;1.30;80.46
42705;BME280;28342;42.594;23.414;2023-01-28T15:09:13;94239.88;;;1.09;80.68
42705;BME280;28342;42.594;23.414;2023-01-28T15:11:43;94265.59;;;1.38;80.23
42705;BME280;28342;42.594;23.414;2023-01-28T15:14:28;94261.59;;;1.15;79.62
42705;BME280;28342;42.594;23.414;2023-01-28T15:16:55;94252.78;;;1.26;79.13
42705;BME280;28342;42.594;23.414;2023-01-28T15:19:32;94283.63;;;1.34;80.10
42705;BME280;28342;42.594;23.414;2023-01-28T15:22:03;94269.88;;;1.02;81.71
42705;BME280;28342;42.594;23.414;2023-01-28T15:24:31;94263.00;;;0.85;81.95
42705;BME280;28342;42.594;23.414;2023-01-28T15:26:57;94278.25;;;1.04;81.28
42705;BME280;28342;42.594;23.414;2023-01-28T15:29:31;94278.16;;;0.88;82.65
42705;BME280;28342;42.594;23.414;2023-01-28T15:31:58;94279.25;;;0.93;82.58
42705;BME280;28342;42.594;23.414;2023-01-28T15:34:24;94286.03;;;0.94;83.16
42705;BME280;28342;42.594;23.414;2023-01-28T15:36:59;94272.28;;;0.71;82.70
42705;BME280;28342;42.594;23.414;2023-01-28T15:39:27;94286.03;;;0.94;82.57
42705;BME280;28342;42.594;23.414;2023-01-28T15:41:58;94263.22;;;0.79;83.13
42705;BME280;28342;42.594;23.414;2023-01-28T15:44:44;94305.97;;;1.10;83.46
42705;BME280;28342;42.594;23.414;2023-01-28T15:47:31;94256.34;;;0.68;82.69
42705;BME280;28342;42.594;23.414;2023-01-28T15:50:02;94299.19;;;1.09;82.88
42705;BME280;28342;42.594;23.414;2023-01-28T15:56:03;94279.56;;;1.06;81.92
42705;BME280;28342;42.594;23.414;2023-01-28T15:58:31;94319.69;;;1.32;81.61